EmailTwitter


Observations de surface / Québec / LFLC

Régions: Québec | Canada | États-Unis | Europe | France | UK | Elsewhere
Station
Affichage
Infos & localisation pour LFLC | Aide pour décoder les METARs

Observations prises le 2017-02-24 à 10H00 UTC à CLERMONT/AULNAT, FR (LFLC)

Etat du ciel: partiellement nuageux.

Température: 7.0 Celsius

Point de rosée: 1.0 Celsius

Humidité relative: 66%

Facteur vent: 5.

Vents: Nord à 11 km/h ou 6 noeuds.

Pression au niveau moyen de la mer: 101.70 kilopascals.

Visibilité horizontale: 6.21 milles terrestres ou 9.94 kilomètres.

Hauteur du plafond: 1463 mètres ( 4800 pieds ).

Observation METAR:

LFLC 241000Z AUTO 35006KT 310V070 9999 FEW030 BKN048 BKN056 07/01 Q1017 NOSIG=